Time;durP1;ratioP1;P1;durP2;ratioP2;P2;SDS_P1;SDS_P2;PMS_P1;PMS_P2;Temp;Humidity;BMP_temperature;BMP_pressure;BME280_temperature;BME280_humidity;BME280_pressure;Samples;Min_cycle;Max_cycle;Signal;HPM_P1;HPM_P2
2021/11/21 00:00:01;;;;;;;0.93;0.93;;;;;;;10.75;89.81;100662.75;5095041;28;20490;-69
2021/11/21 00:02:29;;;;;;;0.40;0.30;;;;;;;10.72;90.17;100661.47;5094896;28;20494;-68
2021/11/21 00:04:56;;;;;;;0.50;0.40;;;;;;;10.75;90.69;100668.19;5094946;28;20528;-69
2021/11/21 00:07:23;;;;;;;0.40;0.30;;;;;;;10.74;90.08;100651.13;5094396;28;21044;-69
2021/11/21 00:09:50;;;;;;;0.40;0.30;;;;;;;10.77;89.55;100639.69;5095001;28;20436;-69
2021/11/21 00:12:17;;;;;;;0.40;0.30;;;;;;;10.74;89.61;100645.69;5094853;28;20531;-69
2021/11/21 00:14:44;;;;;;;0.40;0.30;;;;;;;10.75;89.89;100649.22;5094747;28;20505;-69
2021/11/21 00:17:11;;;;;;;0.40;0.30;;;;;;;10.72;89.46;100631.66;5094334;28;20457;-69
2021/11/21 00:19:41;;;;;;;0.40;0.30;;;;;;;10.75;89.67;100636.47;5094657;28;20452;-69
2021/11/21 00:22:08;;;;;;;1.03;1.03;;;;;;;10.74;89.99;100634.88;5094290;28;20448;-69
2021/11/21 00:24:36;;;;;;;0.40;0.30;;;;;;;10.72;89.80;100637.09;5094208;28;20829;-69
2021/11/21 00:27:03;;;;;;;1.13;1.13;;;;;;;10.74;89.36;100634.88;5094157;28;20483;-69
2021/11/21 00:29:30;;;;;;;0.40;0.20;;;;;;;10.72;89.89;100626.25;5094460;28;20883;-69
2021/11/21 00:31:56;;;;;;;0.40;0.30;;;;;;;10.71;89.84;100629.25;5094466;28;20487;-70
2021/11/21 00:34:23;;;;;;;0.40;0.30;;;;;;;10.69;89.88;100629.56;5094502;28;20518;-69
2021/11/21 00:36:51;;;;;;;0.40;0.30;;;;;;;10.70;89.22;100627.63;5093981;28;20469;-69
2021/11/21 00:39:18;;;;;;;0.40;0.30;;;;;;;10.69;89.66;100616.00;5094310;28;20441;-70
2021/11/21 00:41:45;;;;;;;0.40;0.30;;;;;;;10.65;90.28;100619.63;5093968;28;20502;-69
2021/11/21 00:44:11;;;;;;;0.40;0.30;;;;;;;10.68;89.77;100611.69;5093848;28;20484;-69
2021/11/21 00:46:38;;;;;;;0.40;0.30;;;;;;;10.67;89.47;100610.09;5093785;28;20522;-68
2021/11/21 00:49:08;;;;;;;0.40;0.27;;;;;;;10.73;89.05;100608.09;5093681;28;20480;-68
2021/11/21 00:51:35;;;;;;;0.40;0.20;;;;;;;10.69;88.87;100607.88;5094017;28;20494;-69
2021/11/21 00:54:09;;;;;;;0.40;0.30;;;;;;;10.73;89.14;100606.16;5094020;28;20519;-69
2021/11/21 00:56:36;;;;;;;0.40;0.30;;;;;;;10.75;89.33;100611.28;5093456;28;20469;-70
2021/11/21 00:59:03;;;;;;;0.40;0.30;;;;;;;10.77;88.96;100600.97;5094137;28;20445;-69
2021/11/21 01:01:30;;;;;;;0.40;0.30;;;;;;;10.69;89.91;100601.66;5093960;28;20436;-69
2021/11/21 01:03:56;;;;;;;0.40;0.30;;;;;;;10.72;89.27;100598.34;5093505;28;20899;-69
2021/11/21 01:06:23;;;;;;;0.40;0.30;;;;;;;10.69;89.49;100591.63;5093724;28;20490;-69
2021/11/21 01:08:50;;;;;;;0.40;0.30;;;;;;;10.69;89.33;100585.41;5093464;28;20471;-69
2021/11/21 01:11:18;;;;;;;0.40;0.30;;;;;;;10.68;89.15;100584.59;5093959;28;20867;-70
2021/11/21 01:13:45;;;;;;;0.40;0.30;;;;;;;10.65;89.56;100579.78;5093525;28;20925;-69
2021/11/21 01:16:13;;;;;;;0.50;0.30;;;;;;;10.64;89.18;100585.50;5093609;28;20498;-69
2021/11/21 01:18:39;;;;;;;0.40;0.30;;;;;;;10.67;89.28;100585.72;5093758;28;20527;-69
2021/11/21 01:21:07;;;;;;;0.40;0.30;;;;;;;10.64;88.79;100583.59;5093583;28;20437;-69
2021/11/21 01:23:34;;;;;;;0.40;0.30;;;;;;;10.61;89.10;100587.69;5093493;28;20484;-69
2021/11/21 01:26:01;;;;;;;0.40;0.30;;;;;;;10.59;89.55;100584.50;5093310;28;20506;-69
2021/11/21 01:28:29;;;;;;;0.40;0.30;;;;;;;10.57;89.38;100581.28;5098814;22;20464;-82
2021/11/21 01:30:56;;;;;;;0.40;0.30;;;;;;;10.55;89.56;100569.16;5078234;28;20430;-83
2021/11/21 01:33:23;;;;;;;0.40;0.30;;;;;;;10.56;89.62;100568.84;5078291;28;20461;-81
2021/11/21 01:35:50;;;;;;;0.40;0.30;;;;;;;10.53;89.66;100557.81;5090752;22;20493;-71
2021/11/21 01:38:17;;;;;;;0.40;0.30;;;;;;;10.51;90.07;100552.69;5073331;28;20449;-71
2021/11/21 01:40:43;;;;;;;0.60;0.60;;;;;;;10.51;90.13;100554.59;5073062;28;20449;-70
2021/11/21 01:43:10;;;;;;;0.40;0.30;;;;;;;10.48;89.99;100547.06;5073092;28;20526;-70
2021/11/21 01:45:38;;;;;;;0.40;0.30;;;;;;;10.52;89.57;100550.78;5072802;28;20462;-71
2021/11/21 01:48:05;;;;;;;1.07;0.97;;;;;;;10.47;89.82;100548.19;5073030;28;20481;-70
2021/11/21 01:50:38;;;;;;;0.40;0.30;;;;;;;10.49;89.42;100548.69;5073089;28;20514;-70
2021/11/21 01:53:06;;;;;;;0.40;0.30;;;;;;;10.49;89.02;100543.25;5073140;28;20507;-70
2021/11/21 01:55:34;;;;;;;0.40;0.30;;;;;;;10.47;88.96;100534.66;5073072;28;20441;-71
2021/11/21 01:58:01;;;;;;;0.40;0.30;;;;;;;10.49;89.57;100527.84;5072989;28;20499;-71
2021/11/21 02:00:31;;;;;;;0.40;0.30;;;;;;;10.49;89.02;100525.13;5074702;28;20469;-69
2021/11/21 02:02:59;;;;;;;0.60;0.60;;;;;;;10.48;89.43;100523.50;5077084;28;20894;-71
2021/11/21 02:05:26;;;;;;;0.40;0.30;;;;;;;10.47;88.98;100516.50;5077082;28;20823;-72
2021/11/21 02:07:53;;;;;;;0.80;0.80;;;;;;;10.50;88.78;100509.69;5076693;28;20445;-70
2021/11/21 02:10:22;;;;;;;0.40;0.30;;;;;;;10.48;89.19;100507.25;5076350;28;20477;-71
2021/11/21 02:12:49;;;;;;;0.40;0.30;;;;;;;10.51;88.88;100495.03;5076905;28;20494;-71
2021/11/21 02:15:19;;;;;;;0.40;0.30;;;;;;;10.50;88.41;100488.81;5076478;28;20444;-70
2021/11/21 02:17:46;;;;;;;0.40;0.30;;;;;;;10.50;88.00;100483.41;5076871;28;20437;-70
2021/11/21 02:20:17;;;;;;;0.60;0.57;;;;;;;10.41;88.52;100479.00;5076637;28;20461;-70
2021/11/21 02:22:46;;;;;;;0.40;0.30;;;;;;;10.38;88.68;100464.16;5076438;28;20487;-70
2021/11/21 02:25:12;;;;;;;0.40;0.30;;;;;;;10.41;88.57;100465.47;5076243;28;20481;-69
2021/11/21 02:27:39;;;;;;;0.60;0.60;;;;;;;10.42;88.63;100461.66;5076637;28;20520;-70
2021/11/21 02:30:08;;;;;;;0.90;0.90;;;;;;;10.43;88.32;100464.03;5076184;28;20465;-70
2021/11/21 02:32:35;;;;;;;1.57;0.40;;;;;;;10.45;88.48;100461.84;5076508;28;20469;-70
2021/11/21 02:35:03;;;;;;;0.40;0.30;;;;;;;10.45;87.88;100461.84;5076370;28;20433;-71
2021/11/21 02:37:29;;;;;;;0.40;0.30;;;;;;;10.43;88.25;100447.78;5076486;28;20418;-72
2021/11/21 02:39:57;;;;;;;0.40;0.30;;;;;;;10.41;88.31;100446.50;5076293;28;20542;-70
2021/11/21 02:42:27;;;;;;;0.40;0.30;;;;;;;10.38;88.69;100452.53;5076201;28;20805;-70
2021/11/21 02:44:54;;;;;;;0.40;0.20;;;;;;;10.40;88.58;100455.72;5076240;28;20530;-71
2021/11/21 02:47:22;;;;;;;0.40;0.30;;;;;;;10.38;88.62;100450.63;5075861;28;20870;-72
2021/11/21 02:49:48;;;;;;;0.40;0.30;;;;;;;10.39;88.85;100446.78;5076090;28;20457;-70
2021/11/21 02:52:15;;;;;;;0.40;0.30;;;;;;;10.44;88.24;100445.88;5076156;28;20436;-70
2021/11/21 02:54:50;;;;;;;0.40;0.30;;;;;;;10.44;88.15;100443.97;5075850;28;20984;-70
2021/11/21 02:57:18;;;;;;;0.40;0.20;;;;;;;10.44;87.37;100445.88;5076475;28;20844;-70
2021/11/21 02:59:45;;;;;;;0.40;0.30;;;;;;;10.42;87.99;100437.28;5075662;28;20495;-70
2021/11/21 03:02:11;;;;;;;4.03;2.60;;;;;;;10.38;87.96;100431.66;5075720;28;20939;-69
2021/11/21 03:04:39;;;;;;;0.40;0.30;;;;;;;10.37;88.12;100438.19;5075876;28;20554;-70
2021/11/21 03:07:06;;;;;;;0.40;0.30;;;;;;;10.34;87.86;100436.88;5075894;28;20449;-71
2021/11/21 03:09:33;;;;;;;0.40;0.30;;;;;;;10.38;87.52;100441.69;5075830;28;20877;-71
2021/11/21 03:12:00;;;;;;;0.40;0.30;;;;;;;10.39;87.25;100437.88;5074234;28;20441;-71
2021/11/21 03:14:28;;;;;;;0.40;0.30;;;;;;;10.36;87.37;100439.31;5075655;28;20981;-72
2021/11/21 03:16:55;;;;;;;0.77;0.77;;;;;;;10.38;87.70;100431.66;5075739;28;20445;-70
2021/11/21 03:19:22;;;;;;;0.40;0.30;;;;;;;10.35;88.13;100433.06;5075269;28;21006;-73
2021/11/21 03:21:48;;;;;;;0.40;0.30;;;;;;;10.32;87.71;100428.25;5075595;28;20442;-71
2021/11/21 03:24:15;;;;;;;0.40;0.30;;;;;;;10.35;87.43;100422.22;5075272;28;20480;-70
2021/11/21 03:26:42;;;;;;;0.40;0.30;;;;;;;10.32;87.50;100425.56;5075801;28;20446;-71
2021/11/21 03:29:09;;;;;;;2.30;2.20;;;;;;;10.32;87.22;100428.25;5075194;28;21102;-71
2021/11/21 03:31:37;;;;;;;0.40;0.30;;;;;;;10.31;87.29;100423.97;5075157;28;20502;-70
2021/11/21 03:34:05;;;;;;;0.40;0.30;;;;;;;10.27;87.61;100425.66;5075217;28;20438;-71
2021/11/21 03:36:33;;;;;;;0.40;0.30;;;;;;;10.24;87.54;100426.25;5075093;28;20499;-72
2021/11/21 03:39:00;;;;;;;0.40;0.40;;;;;;;10.26;88.08;100424.03;5074960;28;20902;-70
2021/11/21 03:41:27;;;;;;;0.40;0.23;;;;;;;10.32;88.03;100417.44;5075151;28;20491;-73
2021/11/21 03:43:54;;;;;;;0.40;0.30;;;;;;;10.32;86.88;100406.59;5074803;28;20542;-70
2021/11/21 03:46:22;;;;;;;0.40;0.30;;;;;;;10.31;87.32;100415.84;5074850;28;20445;-71
2021/11/21 03:48:51;;;;;;;2.60;2.00;;;;;;;10.30;86.89;100418.84;5075356;28;20478;-72
2021/11/21 03:51:17;;;;;;;3.97;1.80;;;;;;;10.26;87.31;100407.00;5075141;28;20441;-70
2021/11/21 03:53:44;;;;;;;0.40;0.30;;;;;;;10.25;87.24;100413.53;5074795;28;20460;-71
2021/11/21 03:56:11;;;;;;;0.40;0.30;;;;;;;10.28;87.63;100416.44;5075091;28;20433;-71
2021/11/21 03:58:38;;;;;;;0.40;0.30;;;;;;;10.29;87.87;100411.81;5074898;28;20563;-70
2021/11/21 04:01:05;;;;;;;0.40;0.30;;;;;;;10.28;87.96;100419.16;5074897;28;20495;-71
2021/11/21 04:03:32;;;;;;;0.40;0.30;;;;;;;10.25;87.04;100417.03;5074480;28;20445;-71
2021/11/21 04:06:00;;;;;;;0.40;0.30;;;;;;;10.25;87.26;100411.63;5074767;28;20445;-70
2021/11/21 04:08:26;;;;;;;0.40;0.30;;;;;;;10.23;87.60;100415.72;5074845;28;20494;-72
2021/11/21 04:10:54;;;;;;;0.40;0.30;;;;;;;10.20;87.70;100410.91;5074626;28;20449;-70
2021/11/21 04:13:20;;;;;;;0.40;0.30;;;;;;;10.17;87.93;100408.78;5073965;28;20465;-72
2021/11/21 04:15:47;;;;;;;0.40;0.30;;;;;;;10.19;87.65;100403.91;5074292;28;20441;-70
2021/11/21 04:18:14;;;;;;;3.20;2.90;;;;;;;10.17;87.71;100401.47;5074411;28;20446;-71
2021/11/21 04:20:42;;;;;;;0.40;0.30;;;;;;;10.17;88.01;100387.94;5074181;28;20445;-70
2021/11/21 04:23:10;;;;;;;0.40;0.30;;;;;;;10.17;88.06;100379.81;5073987;28;20444;-70
2021/11/21 04:25:37;;;;;;;0.40;0.30;;;;;;;10.22;87.84;100387.03;5073949;28;20481;-71
2021/11/21 04:28:04;;;;;;;0.40;0.30;;;;;;;10.17;87.53;100377.09;5074391;28;20449;-70
2021/11/21 04:30:31;;;;;;;0.40;0.30;;;;;;;10.18;88.29;100386.03;5074271;28;20460;-70
2021/11/21 04:32:57;;;;;;;0.40;0.30;;;;;;;10.18;88.54;100377.91;5073978;28;20872;-70
2021/11/21 04:35:24;;;;;;;0.40;0.27;;;;;;;10.15;88.31;100384.75;5074031;28;20519;-70
2021/11/21 04:37:51;;;;;;;1.70;1.60;;;;;;;10.10;88.08;100377.53;5074177;28;20483;-73
2021/11/21 04:40:19;;;;;;;0.40;0.30;;;;;;;10.06;88.95;100373.84;5074261;28;20461;-74
2021/11/21 04:42:46;;;;;;;0.50;0.40;;;;;;;10.12;89.03;100374.53;5074016;28;20448;-71
2021/11/21 04:45:14;;;;;;;0.40;0.30;;;;;;;10.11;88.77;100367.50;5073879;28;20481;-74
2021/11/21 04:47:41;;;;;;;0.40;0.30;;;;;;;10.09;88.81;100369.69;5073712;28;20532;-71
2021/11/21 04:50:10;;;;;;;0.40;0.23;;;;;;;10.09;88.63;100354.28;5073544;28;20518;-72
2021/11/21 04:52:38;;;;;;;0.40;0.30;;;;;;;10.09;88.43;100365.13;5073561;28;20993;-72
2021/11/21 04:55:06;;;;;;;0.40;0.30;;;;;;;10.05;89.35;100353.28;5073828;28;20471;-71
2021/11/21 04:57:38;;;;;;;0.40;0.30;;;;;;;10.05;89.30;100364.13;5073816;28;20445;-71
2021/11/21 05:00:07;;;;;;;0.40;0.30;;;;;;;10.05;89.02;100357.91;5073794;28;20890;-71
2021/11/21 05:02:39;;;;;;;0.40;0.30;;;;;;;10.06;88.94;100362.22;5073614;28;20924;-72
2021/11/21 05:05:06;;;;;;;0.40;0.30;;;;;;;9.96;89.26;100351.56;5073567;28;21065;-71
2021/11/21 05:07:33;;;;;;;0.40;0.30;;;;;;;9.94;89.52;100361.91;5073671;28;20449;-72
2021/11/21 05:09:59;;;;;;;0.40;0.30;;;;;;;9.93;89.80;100349.50;5073154;28;20511;-72
2021/11/21 05:12:26;;;;;;;0.40;0.30;;;;;;;9.91;90.00;100354.41;5073824;28;20506;-71
2021/11/21 05:14:56;;;;;;;0.40;0.30;;;;;;;9.92;90.49;100350.59;5073213;28;20800;-70
2021/11/21 05:17:22;;;;;;;0.40;0.30;;;;;;;9.94;89.75;100348.38;5073479;28;20533;-71
2021/11/21 05:19:49;;;;;;;0.40;0.30;;;;;;;9.93;89.94;100347.59;5073382;28;20461;-71
2021/11/21 05:22:16;;;;;;;0.40;0.30;;;;;;;9.84;90.42;100347.50;5073485;28;20449;-71
2021/11/21 05:24:43;;;;;;;1.50;1.40;;;;;;;9.84;90.14;100342.09;5073412;28;20546;-71
2021/11/21 05:27:09;;;;;;;0.40;0.30;;;;;;;9.80;90.57;100327.56;5073085;28;20950;-72
2021/11/21 05:29:36;;;;;;;0.40;0.30;;;;;;;9.76;90.70;100340.09;5073215;28;20461;-72
2021/11/21 05:32:05;;;;;;;0.40;0.30;;;;;;;9.79;90.23;100341.41;5073248;28;20927;-71
2021/11/21 05:34:32;;;;;;;0.40;0.30;;;;;;;9.76;89.88;100348.19;5072232;28;20459;-71
2021/11/21 05:36:58;;;;;;;0.70;0.70;;;;;;;9.79;90.19;100344.09;5073119;28;20457;-69
2021/11/21 05:39:25;;;;;;;0.40;0.33;;;;;;;9.75;90.65;100335.78;5073159;28;20835;-71
2021/11/21 05:41:52;;;;;;;0.40;0.30;;;;;;;9.73;90.77;100342.59;5073197;28;20437;-71
2021/11/21 05:44:19;;;;;;;0.40;0.30;;;;;;;9.74;90.43;100334.19;5072758;28;20472;-71
2021/11/21 05:46:47;;;;;;;0.40;0.30;;;;;;;9.71;90.22;100331.28;5072963;28;20536;-69
2021/11/21 05:49:15;;;;;;;0.40;0.30;;;;;;;9.73;90.68;100340.69;5073027;28;20542;-69
2021/11/21 05:51:42;;;;;;;0.40;0.30;;;;;;;9.76;90.67;100331.97;5072777;28;20441;-70
2021/11/21 05:54:09;;;;;;;0.40;0.30;;;;;;;9.78;90.91;100334.34;5073001;28;20456;-70
2021/11/21 05:56:35;;;;;;;0.40;0.40;;;;;;;9.78;91.21;100327.06;5072706;28;20429;-71
2021/11/21 05:59:02;;;;;;;1.43;1.33;;;;;;;9.74;90.57;100323.38;5072707;28;20473;-71
2021/11/21 06:01:29;;;;;;;0.40;0.30;;;;;;;9.73;90.88;100323.66;5072876;28;20441;-71
2021/11/21 06:03:57;;;;;;;0.40;0.30;;;;;;;9.64;90.98;100331.66;5072885;28;20502;-70
2021/11/21 06:06:25;;;;;;;0.40;0.30;;;;;;;9.67;91.22;100325.66;5072902;28;20485;-71
2021/11/21 06:08:52;;;;;;;0.50;0.30;;;;;;;9.68;91.31;100321.84;5072815;28;20465;-69
2021/11/21 06:11:19;;;;;;;0.40;0.30;;;;;;;9.59;91.24;100315.53;5072937;28;20530;-69
2021/11/21 06:13:46;;;;;;;0.40;0.30;;;;;;;9.64;91.21;100310.03;5072896;28;20507;-70
2021/11/21 06:16:12;;;;;;;0.40;0.30;;;;;;;9.63;90.98;100313.84;5072848;28;20510;-70
2021/11/21 06:18:39;;;;;;;0.40;0.30;;;;;;;9.65;90.67;100310.81;5072675;28;20510;-70
2021/11/21 06:21:06;;;;;;;0.40;0.30;;;;;;;9.59;91.27;100305.53;5072560;28;20495;-69
2021/11/21 06:23:35;;;;;;;0.50;0.30;;;;;;;9.62;91.37;100306.03;5072871;28;20469;-69
2021/11/21 06:26:02;;;;;;;2.87;2.60;;;;;;;9.61;91.26;100302.53;5072493;28;20482;-70
2021/11/21 06:28:29;;;;;;;0.40;0.30;;;;;;;9.63;90.95;100297.63;5072656;28;20433;-69
2021/11/21 06:30:56;;;;;;;0.40;0.30;;;;;;;9.55;91.02;100299.13;5072539;28;20434;-70
2021/11/21 06:33:23;;;;;;;0.40;0.30;;;;;;;9.54;91.09;100302.94;5072681;28;20862;-70
2021/11/21 06:35:50;;;;;;;0.40;0.30;;;;;;;9.59;91.05;100302.03;5071931;28;20522;-70
2021/11/21 06:38:18;;;;;;;0.60;0.60;;;;;;;9.58;91.11;100293.13;5072180;28;20490;-70
2021/11/21 06:40:46;;;;;;;0.40;0.30;;;;;;;9.60;91.77;100304.41;5072275;28;20442;-70
2021/11/21 06:43:13;;;;;;;1.20;1.17;;;;;;;9.69;91.21;100292.91;5072599;28;20879;-70
2021/11/21 06:45:40;;;;;;;0.40;0.20;;;;;;;9.69;90.58;100301.81;5073220;28;20484;-70
2021/11/21 06:48:10;;;;;;;0.40;0.30;;;;;;;9.69;90.65;100301.81;5076240;28;20494;-70
2021/11/21 06:50:38;;;;;;;0.40;0.30;;;;;;;9.69;90.48;100309.13;5075754;28;20472;-70
2021/11/21 06:53:05;;;;;;;0.57;0.57;;;;;;;9.69;90.48;100307.22;5076165;28;20434;-71
2021/11/21 06:55:32;;;;;;;0.40;0.30;;;;;;;9.71;90.58;100315.06;5076111;28;20494;-71
2021/11/21 06:58:00;;;;;;;0.40;0.30;;;;;;;9.68;90.40;100313.75;5075756;28;20506;-71
2021/11/21 07:00:27;;;;;;;0.40;0.20;;;;;;;9.70;91.03;100310.75;5075967;28;20465;-70
2021/11/21 07:02:53;;;;;;;0.60;0.60;;;;;;;9.69;91.37;100312.63;5076030;28;20440;-71
2021/11/21 07:05:20;;;;;;;0.40;0.30;;;;;;;9.70;90.94;100308.03;5075925;28;20489;-70
2021/11/21 07:07:47;;;;;;;0.40;0.30;;;;;;;9.73;90.51;100305.50;5076053;28;20562;-71
2021/11/21 07:10:14;;;;;;;0.40;0.30;;;;;;;9.75;90.28;100318.75;5075907;28;20892;-69
2021/11/21 07:12:41;;;;;;;0.40;0.30;;;;;;;9.78;90.78;100305.44;5075525;28;20531;-70
2021/11/21 07:15:10;;;;;;;0.40;0.30;;;;;;;9.77;90.74;100308.41;5075476;28;20532;-70
2021/11/21 07:17:37;;;;;;;0.40;0.30;;;;;;;9.78;91.00;100313.56;5075729;28;20862;-71
2021/11/21 07:20:05;;;;;;;1.90;1.80;;;;;;;9.79;91.45;100317.84;5075953;28;20465;-70
2021/11/21 07:22:32;;;;;;;0.40;0.30;;;;;;;9.80;92.65;100315.94;5075595;28;20506;-71
2021/11/21 07:24:59;;;;;;;3.70;2.10;;;;;;;9.84;92.81;100314.25;5075511;28;20864;-70
2021/11/21 07:27:25;;;;;;;0.40;0.30;;;;;;;9.81;92.83;100314.84;5075471;28;20527;-70
2021/11/21 07:29:52;;;;;;;0.40;0.30;;;;;;;9.75;93.35;100316.06;5085341;22;20497;-81
2021/11/21 07:32:20;;;;;;;0.40;0.40;;;;;;;9.70;94.20;100313.47;5079592;28;20441;-81
2021/11/21 07:34:47;;;;;;;2.00;1.90;;;;;;;9.72;93.94;100313.94;5078091;28;20453;-80
2021/11/21 07:37:14;;;;;;;0.40;0.30;;;;;;;9.73;93.90;100312.84;5095454;28;20453;-80
2021/11/21 07:39:40;;;;;;;0.60;0.30;;;;;;;9.68;94.40;100318.34;5098381;28;20860;-81
2021/11/21 07:42:07;;;;;;;0.90;0.90;;;;;;;9.62;95.13;100317.66;5097690;28;20452;-80
2021/11/21 07:44:34;;;;;;;0.40;0.30;;;;;;;9.54;97.07;100321.06;5097439;28;20463;-80
2021/11/21 07:47:01;;;;;;;0.40;0.30;;;;;;;9.43;99.26;100317.75;5097591;28;20484;-80
2021/11/21 07:49:30;;;;;;;0.40;0.30;;;;;;;9.35;99.67;100321.94;5097709;28;20459;-81
2021/11/21 07:51:56;;;;;;;0.40;0.30;;;;;;;9.26;100.00;100315.63;5097823;28;20444;-80
2021/11/21 07:54:23;;;;;;;0.40;0.30;;;;;;;9.16;100.00;100326.63;5097092;28;20448;-80
2021/11/21 07:56:50;;;;;;;1.53;1.43;;;;;;;9.14;100.00;100328.81;5097541;28;20465;-80
2021/11/21 07:59:17;;;;;;;0.50;0.30;;;;;;;9.11;100.00;100329.41;5096906;28;20440;-80
2021/11/21 08:01:46;;;;;;;2.10;1.90;;;;;;;9.14;100.00;100336.94;5097652;28;20468;-80
2021/11/21 08:04:12;;;;;;;0.40;0.30;;;;;;;9.13;100.00;100329.13;5096793;28;20459;-80
2021/11/21 08:06:40;;;;;;;0.40;0.30;;;;;;;9.15;100.00;100325.03;5097746;28;20538;-80
2021/11/21 08:09:07;;;;;;;0.40;0.30;;;;;;;9.14;100.00;100336.94;5097155;28;20456;-80
2021/11/21 08:11:35;;;;;;;0.40;0.30;;;;;;;9.14;100.00;100336.94;5097393;28;20447;-80
2021/11/21 08:14:01;;;;;;;0.40;0.30;;;;;;;9.14;100.00;100345.03;5097354;28;20447;-80
2021/11/21 08:16:28;;;;;;;0.40;0.30;;;;;;;9.16;100.00;100342.81;5097125;28;20453;-79
2021/11/21 08:18:55;;;;;;;0.40;0.30;;;;;;;9.15;100.00;100340.44;5097360;28;20464;-80
2021/11/21 08:21:22;;;;;;;0.40;0.30;;;;;;;9.18;100.00;100348.75;5097925;28;20459;-79
2021/11/21 08:23:50;;;;;;;0.40;0.20;;;;;;;9.17;100.00;100349.06;5097575;28;20448;-79
2021/11/21 08:26:17;;;;;;;0.40;0.30;;;;;;;9.15;100.00;100351.25;5096985;28;20488;-82
2021/11/21 08:28:44;;;;;;;0.40;0.30;;;;;;;9.11;100.00;100345.63;5096369;28;20810;-79
2021/11/21 08:31:11;;;;;;;0.40;0.30;;;;;;;9.06;100.00;100348.41;5096285;28;20440;-79
2021/11/21 08:33:37;;;;;;;0.40;0.30;;;;;;;9.12;100.00;100343.72;5096706;28;20444;-79
2021/11/21 08:36:05;;;;;;;0.40;0.30;;;;;;;9.12;100.00;100346.41;5097038;28;20469;-79
2021/11/21 08:38:31;;;;;;;0.40;0.30;;;;;;;9.13;100.00;100346.16;5096582;28;20472;-79
2021/11/21 08:41:00;;;;;;;0.73;0.73;;;;;;;9.11;100.00;100348.31;5096669;28;20440;-79
2021/11/21 08:43:26;;;;;;;0.40;0.30;;;;;;;9.10;100.00;100347.53;5096773;28;20455;-79
2021/11/21 08:45:53;;;;;;;8.10;7.53;;;;;;;9.13;100.00;100340.75;5096163;28;20493;-79
2021/11/21 08:48:20;;;;;;;0.40;0.30;;;;;;;9.16;100.00;100344.72;5096729;28;20505;-79
2021/11/21 08:50:47;;;;;;;0.40;0.30;;;;;;;9.17;100.00;100344.44;5095604;28;20428;-79
2021/11/21 08:53:14;;;;;;;0.87;0.87;;;;;;;9.17;100.00;100343.66;5095923;28;20441;-80
2021/11/21 08:55:41;;;;;;;0.40;0.30;;;;;;;9.23;100.00;100342.47;5096313;28;20965;-81
2021/11/21 08:58:09;;;;;;;0.40;0.30;;;;;;;9.31;100.00;100345.28;5096386;28;20436;-81
2021/11/21 09:00:36;;;;;;;0.40;0.30;;;;;;;9.38;100.00;100338.66;5096023;28;20452;-81
2021/11/21 09:03:03;;;;;;;0.40;0.30;;;;;;;9.41;100.00;100343.47;5095639;28;20497;-79
2021/11/21 09:05:30;;;;;;;0.40;0.30;;;;;;;9.46;100.00;100340.69;5096240;28;20480;-79
2021/11/21 09:07:57;;;;;;;0.40;0.30;;;;;;;9.41;100.00;100338.88;5095997;28;20432;-79
2021/11/21 09:10:24;;;;;;;0.40;0.30;;;;;;;9.41;100.00;100344.28;5095902;28;20429;-79
2021/11/21 09:12:52;;;;;;;0.40;0.30;;;;;;;9.39;100.00;100351.09;5095661;28;20444;-79
2021/11/21 09:15:22;;;;;;;0.40;0.30;;;;;;;9.41;100.00;100352.38;5095237;28;20440;-79
2021/11/21 09:17:53;;;;;;;0.40;0.30;;;;;;;9.37;100.00;100348.69;5094798;28;20507;-80
2021/11/21 09:20:23;;;;;;;0.40;0.30;;;;;;;9.39;100.00;100351.09;5095586;28;20474;-79
2021/11/21 09:22:50;;;;;;;0.40;0.30;;;;;;;9.35;100.00;100351.69;5095240;28;20447;-79
2021/11/21 09:25:17;;;;;;;0.40;0.30;;;;;;;9.32;100.00;100348.78;5101140;28;20489;-81
2021/11/21 09:27:44;;;;;;;0.40;0.30;;;;;;;9.34;100.00;100351.97;5099498;28;20436;-81
2021/11/21 09:30:12;;;;;;;0.60;0.60;;;;;;;9.35;100.00;100346.28;5104428;28;20464;-81
2021/11/21 09:32:40;;;;;;;0.40;0.30;;;;;;;9.37;100.00;100345.19;5109805;28;20440;-81
2021/11/21 09:35:09;;;;;;;0.40;0.30;;;;;;;9.38;100.00;100350.28;5097838;28;20446;-81
2021/11/21 09:37:37;;;;;;;0.40;0.30;;;;;;;9.39;100.00;100359.22;5097322;28;20494;-81
2021/11/21 09:40:05;;;;;;;0.40;0.30;;;;;;;9.40;100.00;100347.28;5099046;28;20452;-80
2021/11/21 09:42:32;;;;;;;0.73;0.73;;;;;;;9.41;100.00;100346.19;5101238;28;20513;-80
2021/11/21 09:44:58;;;;;;;0.40;0.30;;;;;;;9.46;100.00;100351.50;5100988;28;20433;-80
2021/11/21 09:47:25;;;;;;;0.40;0.30;;;;;;;9.47;100.00;100337.66;5103984;28;20488;-80
2021/11/21 09:49:54;;;;;;;0.40;0.30;;;;;;;9.43;100.00;100331.28;5100239;28;20444;-80
2021/11/21 09:52:20;;;;;;;0.40;0.30;;;;;;;9.41;100.00;100332.66;5101539;28;20443;-80
2021/11/21 09:54:47;;;;;;;0.40;0.30;;;;;;;9.44;100.00;100338.28;5102285;28;20440;-80
2021/11/21 09:57:14;;;;;;;0.40;0.30;;;;;;;9.49;100.00;100331.97;5102860;28;20509;-80
2021/11/21 09:59:53;;;;;;;0.50;0.43;;;;;;;9.54;100.00;100331.88;5102901;28;20999;-80
2021/11/21 10:02:21;;;;;;;0.40;0.30;;;;;;;9.58;100.00;100332.88;5103111;28;20439;-81
2021/11/21 10:04:48;;;;;;;0.50;0.50;;;;;;;9.57;100.00;100331.28;5105312;28;20429;-80
2021/11/21 10:07:26;;;;;;;0.40;0.30;;;;;;;9.58;100.00;100327.47;5103218;28;20857;-81
2021/11/21 10:09:54;;;;;;;0.40;0.30;;;;;;;9.60;100.00;100327.97;5102441;28;20544;-80
2021/11/21 10:12:22;;;;;;;0.40;0.30;;;;;;;9.63;100.00;100321.97;5101146;28;20844;-80
2021/11/21 10:15:02;;;;;;;0.40;0.30;;;;;;;9.65;100.00;100318.94;5101077;28;20470;-80
2021/11/21 10:17:30;;;;;;;0.40;0.30;;;;;;;9.68;100.00;100324.56;5100515;28;20488;-80
2021/11/21 10:20:15;;;;;;;0.40;0.30;;;;;;;9.69;100.00;100322.66;5099695;28;20509;-80
2021/11/21 10:23:00;;;;;;;0.40;0.30;;;;;;;9.66;100.00;100313.25;5108955;28;20428;-80
2021/11/21 10:25:49;;;;;;;0.90;0.90;;;;;;;9.69;100.00;100319.94;5105272;28;20468;-81
2021/11/21 10:28:19;;;;;;;0.40;0.30;;;;;;;9.68;100.00;100316.44;5105492;28;20474;-81
2021/11/21 10:31:08;;;;;;;0.60;0.50;;;;;;;9.68;100.00;100321.84;5107790;28;20485;-80
2021/11/21 10:33:37;;;;;;;0.40;0.30;;;;;;;9.68;100.00;100321.06;5106259;28;20432;-80
2021/11/21 10:36:07;;;;;;;0.40;0.30;;;;;;;9.75;100.00;100322.25;5107269;28;20827;-80
2021/11/21 10:38:39;;;;;;;0.40;0.30;;;;;;;9.82;100.00;100319.94;5104430;28;20497;-81
2021/11/21 10:41:08;;;;;;;0.40;0.30;;;;;;;9.85;100.00;100316.63;5107125;28;20417;-81
2021/11/21 10:43:42;;;;;;;0.40;0.30;;;;;;;9.92;100.00;100320.84;5105331;28;20444;-80
2021/11/21 10:46:21;;;;;;;0.40;0.30;;;;;;;9.96;100.00;100329.94;5106807;28;20475;-80
2021/11/21 10:48:48;;;;;;;0.83;0.83;;;;;;;9.95;100.00;100339.16;5108051;28;20507;-80
2021/11/21 10:51:20;;;;;;;0.40;0.30;;;;;;;9.95;100.00;100328.34;5108240;28;20436;-80
2021/11/21 10:53:48;;;;;;;0.40;0.30;;;;;;;10.00;100.00;100330.94;5109344;28;20429;-80
2021/11/21 10:56:15;;;;;;;0.40;0.30;;;;;;;10.00;100.00;100325.53;5109708;28;20524;-80
2021/11/21 10:58:46;;;;;;;0.40;0.30;;;;;;;9.97;100.00;100320.75;5111672;28;20938;-80
2021/11/21 11:01:24;;;;;;;0.40;0.30;;;;;;;10.05;100.00;100331.66;5111655;28;20437;-80
2021/11/21 11:04:07;;;;;;;0.40;0.30;;;;;;;10.09;100.00;100321.81;5113018;28;20440;-80
2021/11/21 11:06:34;;;;;;;0.40;0.30;;;;;;;10.08;99.95;100328.31;5110989;28;20486;-80
2021/11/21 11:09:17;;;;;;;0.40;0.30;;;;;;;10.11;100.00;100322.31;5108001;28;20451;-80
2021/11/21 11:11:45;;;;;;;0.40;0.30;;;;;;;10.10;100.00;100328.03;5108375;28;20406;-80
2021/11/21 11:14:18;;;;;;;0.57;0.57;;;;;;;10.13;100.00;100327.41;5110107;28;20497;-81
2021/11/21 11:16:46;;;;;;;0.40;0.30;;;;;;;10.11;100.00;100326.91;5108900;28;20449;-80
2021/11/21 11:19:14;;;;;;;0.40;0.30;;;;;;;10.10;100.00;100326.13;5090455;28;20448;-80
2021/11/21 11:21:42;;;;;;;0.40;0.20;;;;;;;9.99;100.00;100332.03;5091625;28;20448;-81
2021/11/21 11:24:09;;;;;;;0.40;0.30;;;;;;;9.96;100.00;100330.75;5092296;28;20509;-81
2021/11/21 11:26:38;;;;;;;0.40;0.23;;;;;;;9.91;100.00;100333.53;5090391;28;20485;-81
2021/11/21 11:29:10;;;;;;;0.40;0.30;;;;;;;9.88;100.00;100327.97;5090584;28;21026;-81